Time;durP1;ratioP1;P1;durP2;ratioP2;P2;SDS_P1;SDS_P2;PMS_P1;PMS_P2;Temp;Humidity;BMP_temperature;BMP_pressure;BME280_temperature;BME280_humidity;BME280_pressure;Samples;Min_cycle;Max_cycle;Signal;HPM_P1;HPM_P2
2023/05/31 00:00:29;;;;;;;2.53;2.33;;;17.20;55.00;;;;;;5001175;28;20038;-63
2023/05/31 00:02:55;;;;;;;4.15;2.90;;;17.10;55.00;;;;;;5002388;28;20038;-63
2023/05/31 00:05:21;;;;;;;4.35;2.60;;;17.10;55.00;;;;;;5003680;28;20541;-62
2023/05/31 00:07:46;;;;;;;3.78;2.03;;;17.10;55.00;;;;;;5002893;28;20049;-62
2023/05/31 00:10:12;;;;;;;4.53;2.80;;;17.00;55.00;;;;;;5001507;28;20038;-60
2023/05/31 00:12:37;;;;;;;3.53;2.33;;;16.90;55.00;;;;;;4997457;28;20060;-62
2023/05/31 00:15:03;;;;;;;4.35;2.50;;;16.90;55.10;;;;;;5001849;28;20033;-62
2023/05/31 00:17:29;;;;;;;3.85;2.50;;;16.90;55.20;;;;;;5003152;28;20038;-62
2023/05/31 00:19:55;;;;;;;3.75;2.30;;;16.90;55.10;;;;;;5001940;28;20401;-62
2023/05/31 00:22:20;;;;;;;4.40;2.42;;;16.80;55.20;;;;;;5001036;28;20062;-63
2023/05/31 00:24:46;;;;;;;2.95;2.40;;;16.80;55.20;;;;;;5002103;28;20049;-62
2023/05/31 00:27:11;;;;;;;10.77;2.22;;;16.80;55.30;;;;;;5004573;28;20580;-63
2023/05/31 00:29:37;;;;;;;3.47;2.20;;;16.80;55.40;;;;;;5003216;28;20033;-63
2023/05/31 00:32:03;;;;;;;3.65;2.38;;;16.70;55.20;;;;;;5004276;28;20106;-62
2023/05/31 00:34:28;;;;;;;4.13;2.55;;;16.70;55.20;;;;;;5001574;28;20037;-63
2023/05/31 00:36:54;;;;;;;3.42;2.35;;;16.60;55.10;;;;;;4999823;28;20033;-62
2023/05/31 00:39:19;;;;;;;3.42;2.13;;;16.60;55.10;;;;;;5002998;28;20429;-62
2023/05/31 00:41:45;;;;;;;5.20;2.30;;;16.50;55.10;;;;;;5001930;28;20091;-62
2023/05/31 00:44:11;;;;;;;2.95;2.25;;;16.50;55.10;;;;;;4998713;28;20038;-61
2023/05/31 00:46:39;;;;;;;2.83;2.05;;;16.50;55.20;;;;;;4999552;28;20521;-61
2023/05/31 00:49:05;;;;;;;3.28;2.38;;;16.50;55.30;;;;;;4999816;28;20038;-63
2023/05/31 00:51:32;;;;;;;5.15;2.53;;;16.50;55.30;;;;;;5000451;28;20084;-62
2023/05/31 00:53:59;;;;;;;2.90;2.30;;;16.50;55.40;;;;;;5001275;28;20061;-63
2023/05/31 00:56:26;;;;;;;3.03;2.15;;;16.40;55.30;;;;;;5001238;28;20034;-63
2023/05/31 00:58:53;;;;;;;3.28;2.10;;;16.40;55.30;;;;;;4999308;28;20502;-62
2023/05/31 01:01:21;;;;;;;6.63;2.17;;;16.40;55.30;;;;;;4981809;28;20066;-63
2023/05/31 01:03:47;;;;;;;3.33;2.08;;;16.30;55.20;;;;;;5003133;28;20454;-63
2023/05/31 01:06:12;;;;;;;5.90;2.10;;;16.30;55.20;;;;;;5001080;28;20589;-62
2023/05/31 01:08:39;;;;;;;3.40;2.28;;;16.30;55.00;;;;;;5000826;28;20061;-62
2023/05/31 01:11:51;;;;;;;2.88;2.00;;;16.30;55.20;;;;;;4999855;28;20074;-63
2023/05/31 01:14:27;;;;;;;2.90;2.10;;;16.30;55.50;;;;;;4989717;28;20034;-63
2023/05/31 01:16:57;;;;;;;5.13;2.15;;;16.30;55.20;;;;;;4999231;28;20037;-63
2023/05/31 01:19:47;;;;;;;4.78;2.30;;;16.20;55.10;;;;;;5001535;28;20049;-62
2023/05/31 01:22:33;;;;;;;4.30;2.17;;;16.20;55.60;;;;;;4999654;28;20121;-63
2023/05/31 01:25:25;;;;;;;2.55;2.00;;;16.20;55.50;;;;;;5002165;28;20033;-63
2023/05/31 01:27:53;;;;;;;2.75;2.08;;;16.10;55.20;;;;;;5002599;28;20086;-62
2023/05/31 01:30:21;;;;;;;4.20;2.30;;;16.00;55.00;;;;;;5002093;28;20058;-62
2023/05/31 01:32:49;;;;;;;3.20;1.75;;;15.90;55.10;;;;;;5003908;28;20556;-63
2023/05/31 01:35:14;;;;;;;6.18;2.08;;;15.80;54.90;;;;;;5002824;28;20038;-63
2023/05/31 01:37:40;;;;;;;3.83;2.10;;;15.70;55.00;;;;;;5001710;28;20457;-63
2023/05/31 01:40:07;;;;;;;3.05;1.70;;;15.70;55.20;;;;;;5002317;28;20128;-62
2023/05/31 01:42:34;;;;;;;3.03;2.05;;;15.60;55.10;;;;;;4996332;28;20386;-62
2023/05/31 01:45:00;;;;;;;4.13;2.00;;;15.50;55.00;;;;;;5000063;28;20033;-62
2023/05/31 01:47:25;;;;;;;3.47;2.00;;;15.30;55.10;;;;;;4999258;28;20041;-62
2023/05/31 01:49:52;;;;;;;5.43;2.00;;;15.30;55.50;;;;;;4982000;28;20038;-62
2023/05/31 01:52:20;;;;;;;3.55;1.95;;;15.20;55.60;;;;;;4999010;28;20073;-62
2023/05/31 01:54:45;;;;;;;2.67;1.85;;;15.20;55.70;;;;;;5001988;28;20494;-62
2023/05/31 01:57:13;;;;;;;2.70;1.98;;;15.10;55.70;;;;;;5003357;28;20453;-63
2023/05/31 01:59:39;;;;;;;6.22;2.28;;;15.10;55.80;;;;;;4999501;28;20529;-62
2023/05/31 02:02:06;;;;;;;2.83;2.00;;;15.00;55.80;;;;;;5003062;28;20461;-63
2023/05/31 02:04:31;;;;;;;3.63;2.03;;;15.00;55.90;;;;;;5000672;28;20397;-62
2023/05/31 02:06:57;;;;;;;4.60;2.25;;;14.90;56.00;;;;;;5003076;28;20026;-62
2023/05/31 02:09:23;;;;;;;5.00;2.40;;;14.80;56.20;;;;;;5002052;28;20053;-62
2023/05/31 02:11:49;;;;;;;3.50;2.00;;;14.70;56.30;;;;;;5003580;28;20033;-61
2023/05/31 02:14:15;;;;;;;3.95;2.10;;;14.60;56.50;;;;;;5005129;28;20041;-63
2023/05/31 02:16:41;;;;;;;4.10;2.35;;;14.50;56.70;;;;;;5003293;28;20182;-61
2023/05/31 02:19:06;;;;;;;3.70;1.70;;;14.50;56.70;;;;;;5006018;28;20033;-63
2023/05/31 02:21:35;;;;;;;2.33;1.77;;;14.30;56.70;;;;;;5004658;28;20095;-62
2023/05/31 02:24:01;;;;;;;3.17;1.95;;;14.20;57.10;;;;;;5002366;28;20042;-63
2023/05/31 02:26:27;;;;;;;3.38;1.98;;;14.20;57.00;;;;;;5005163;28;20367;-62
2023/05/31 02:28:52;;;;;;;4.05;1.90;;;14.10;57.10;;;;;;5005874;28;20116;-62
2023/05/31 02:31:18;;;;;;;5.90;2.00;;;14.00;57.10;;;;;;5002345;28;20034;-63
2023/05/31 02:33:44;;;;;;;3.85;1.90;;;14.00;57.30;;;;;;5002803;28;20042;-62
2023/05/31 02:36:11;;;;;;;6.38;2.08;;;14.00;57.50;;;;;;5003816;28;20483;-62
2023/05/31 02:38:37;;;;;;;2.78;1.80;;;13.90;57.60;;;;;;5000578;28;20069;-62
2023/05/31 02:41:02;;;;;;;3.42;2.03;;;13.90;57.60;;;;;;5004455;28;20472;-62
2023/05/31 02:43:30;;;;;;;3.70;2.00;;;13.90;57.60;;;;;;5003970;28;20157;-62
2023/05/31 02:45:56;;;;;;;4.75;2.00;;;13.90;57.50;;;;;;5002899;28;20128;-62
2023/05/31 02:48:21;;;;;;;3.45;1.90;;;13.90;57.60;;;;;;5004614;28;20132;-62
2023/05/31 02:50:47;;;;;;;3.58;2.03;;;13.90;57.60;;;;;;5004111;28;20543;-61
2023/05/31 02:53:12;;;;;;;5.20;2.20;;;13.90;57.50;;;;;;5004994;28;20042;-63
2023/05/31 02:55:39;;;;;;;6.55;1.60;;;13.90;57.30;;;;;;5004817;28;20120;-62
2023/05/31 02:58:06;;;;;;;1.77;1.50;;;13.80;57.10;;;;;;5005925;28;20030;-63
2023/05/31 03:00:31;;;;;;;2.13;1.52;;;13.80;57.00;;;;;;5004583;28;20041;-61
2023/05/31 03:02:57;;;;;;;3.13;1.67;;;13.70;56.90;;;;;;5004305;28;20042;-62
2023/05/31 03:05:23;;;;;;;2.40;1.60;;;13.60;57.00;;;;;;5004572;28;20037;-62
2023/05/31 03:07:48;;;;;;;2.33;1.60;;;13.60;57.20;;;;;;5004541;28;20044;-62
2023/05/31 03:10:15;;;;;;;4.32;1.75;;;13.50;57.20;;;;;;5005155;28;20083;-62
2023/05/31 03:12:40;;;;;;;2.33;1.60;;;13.40;57.40;;;;;;5001857;28;20072;-62
2023/05/31 03:15:07;;;;;;;2.72;1.60;;;13.40;57.50;;;;;;5003380;28;20041;-62
2023/05/31 03:17:32;;;;;;;2.15;1.50;;;13.30;57.40;;;;;;5004746;28;20026;-62
2023/05/31 03:19:58;;;;;;;2.70;1.67;;;13.30;57.50;;;;;;5003403;28;20041;-61
2023/05/31 03:22:23;;;;;;;3.10;1.60;;;13.20;57.70;;;;;;5003027;28;20497;-62
2023/05/31 03:24:49;;;;;;;3.65;1.85;;;13.20;57.90;;;;;;5002775;28;20450;-62
2023/05/31 03:27:16;;;;;;;2.22;1.30;;;13.20;58.10;;;;;;5008413;28;20022;-62
2023/05/31 03:29:42;;;;;;;6.30;2.08;;;13.20;58.10;;;;;;5006269;28;20030;-63
2023/05/31 03:32:08;;;;;;;2.00;1.50;;;13.20;58.80;;;;;;5002432;28;20190;-62
2023/05/31 03:34:34;;;;;;;4.05;1.75;;;13.30;58.10;;;;;;5002645;28;20456;-63
2023/05/31 03:37:01;;;;;;;4.05;1.77;;;13.30;58.00;;;;;;5001131;28;20072;-62
2023/05/31 03:39:26;;;;;;;3.50;1.85;;;13.40;58.00;;;;;;5000158;28;20363;-63
2023/05/31 03:41:52;;;;;;;2.65;1.63;;;13.40;57.90;;;;;;4984790;28;20126;-63
2023/05/31 03:44:17;;;;;;;3.15;1.77;;;13.50;57.90;;;;;;5001453;28;20030;-63
2023/05/31 03:46:43;;;;;;;4.35;1.63;;;13.50;57.70;;;;;;5000487;28;20038;-62
2023/05/31 03:49:08;;;;;;;2.60;1.90;;;13.50;57.60;;;;;;5001369;28;20055;-61
2023/05/31 03:51:34;;;;;;;2.10;1.45;;;13.60;57.50;;;;;;5002854;28;20068;-63
2023/05/31 03:54:00;;;;;;;2.92;1.45;;;13.60;57.40;;;;;;5004955;28;20492;-63
2023/05/31 03:56:26;;;;;;;4.47;1.60;;;13.60;57.40;;;;;;5001909;28;20615;-63
2023/05/31 03:58:51;;;;;;;2.47;1.38;;;13.70;57.30;;;;;;5003479;28;20092;-62
2023/05/31 04:01:17;;;;;;;2.42;1.42;;;13.70;57.20;;;;;;5000350;28;21209;-62
2023/05/31 04:03:43;;;;;;;2.58;1.83;;;13.80;57.30;;;;;;5001542;28;20049;-62
2023/05/31 04:06:09;;;;;;;2.10;1.70;;;13.80;57.30;;;;;;5003010;28;20329;-63
2023/05/31 04:08:36;;;;;;;4.20;1.50;;;13.80;57.30;;;;;;5002788;28;20030;-62
2023/05/31 04:11:02;;;;;;;3.88;1.80;;;13.80;57.30;;;;;;5002728;28;20040;-63
2023/05/31 04:13:27;;;;;;;3.08;1.80;;;13.90;57.20;;;;;;5003667;28;20077;-62
2023/05/31 04:15:53;;;;;;;2.00;1.40;;;13.90;57.10;;;;;;5001040;28;20038;-62
2023/05/31 04:18:19;;;;;;;2.70;1.65;;;13.80;57.10;;;;;;5002784;28;20038;-62
2023/05/31 04:20:44;;;;;;;5.72;1.70;;;13.90;57.20;;;;;;4996664;28;20429;-63
2023/05/31 04:23:10;;;;;;;4.15;1.73;;;13.90;57.20;;;;;;4998813;28;20034;-63
2023/05/31 04:25:35;;;;;;;3.38;1.50;;;13.90;57.10;;;;;;4999712;28;20120;-62
2023/05/31 04:28:01;;;;;;;2.95;1.85;;;13.90;57.10;;;;;;5006384;28;20034;-63
2023/05/31 04:30:27;;;;;;;4.22;1.80;;;13.90;57.10;;;;;;5003821;28;20502;-63
2023/05/31 04:32:56;;;;;;;3.15;1.67;;;13.90;57.20;;;;;;5004750;28;20034;-61
2023/05/31 04:35:22;;;;;;;2.88;1.70;;;14.00;57.30;;;;;;5004061;28;20095;-62
2023/05/31 04:37:51;;;;;;;4.13;1.50;;;14.00;57.30;;;;;;5006270;28;20495;-62
2023/05/31 04:40:17;;;;;;;4.28;1.65;;;14.00;57.30;;;;;;5004809;28;20041;-63
2023/05/31 04:42:42;;;;;;;4.47;1.38;;;14.00;57.40;;;;;;5005273;28;20034;-62
2023/05/31 04:45:09;;;;;;;3.15;1.63;;;14.00;57.30;;;;;;5005283;28;20030;-62
2023/05/31 04:47:35;;;;;;;3.25;1.63;;;14.00;57.30;;;;;;5006409;28;20057;-63
2023/05/31 04:50:00;;;;;;;3.00;1.33;;;14.00;57.30;;;;;;5004808;28;20425;-61
2023/05/31 04:52:29;;;;;;;2.50;1.45;;;14.10;57.40;;;;;;5004189;28;20038;-63
2023/05/31 04:54:55;;;;;;;1.92;1.50;;;14.10;57.50;;;;;;5005604;28;20357;-63
2023/05/31 04:57:22;;;;;;;3.03;1.42;;;14.10;57.50;;;;;;5005066;28;20401;-63
2023/05/31 04:59:47;;;;;;;2.88;1.48;;;14.10;57.50;;;;;;5005966;28;20103;-62
2023/05/31 05:02:13;;;;;;;2.58;1.50;;;14.10;57.50;;;;;;5005768;28;20037;-61
2023/05/31 05:04:38;;;;;;;2.75;1.70;;;14.10;57.50;;;;;;5006158;28;20069;-63
2023/05/31 05:07:05;;;;;;;3.42;1.40;;;14.10;57.50;;;;;;5007560;28;20032;-63
2023/05/31 05:09:30;;;;;;;2.38;1.63;;;14.20;57.60;;;;;;5005858;28;20038;-63
2023/05/31 05:11:56;;;;;;;4.00;1.85;;;14.20;57.70;;;;;;5006985;28;20030;-63
2023/05/31 05:14:22;;;;;;;2.55;1.90;;;14.20;57.70;;;;;;5006740;28;20069;-62
2023/05/31 05:16:47;;;;;;;2.08;1.40;;;14.30;57.80;;;;;;5005856;28;20038;-62
2023/05/31 05:19:13;;;;;;;2.00;1.80;;;14.30;57.80;;;;;;5006611;28;20057;-63
2023/05/31 05:21:38;;;;;;;2.60;1.30;;;14.30;57.80;;;;;;5006054;28;20124;-62
2023/05/31 05:24:04;;;;;;;4.43;1.40;;;14.40;57.90;;;;;;5006857;28;20405;-62
2023/05/31 05:26:30;;;;;;;2.45;1.60;;;14.40;57.80;;;;;;5004891;28;20093;-63
2023/05/31 05:28:56;;;;;;;3.17;1.25;;;14.60;57.90;;;;;;5006251;28;20041;-61
2023/05/31 05:31:21;;;;;;;2.53;1.63;;;14.60;57.80;;;;;;5006554;28;20045;-62
2023/05/31 05:33:47;;;;;;;3.10;1.70;;;14.70;58.40;;;;;;5006407;28;20121;-62
2023/05/31 05:36:12;;;;;;;3.92;1.55;;;14.80;57.70;;;;;;5006177;28;20608;-62
2023/05/31 05:38:38;;;;;;;3.88;1.33;;;14.90;57.50;;;;;;5005767;28;20034;-63
2023/05/31 05:41:03;;;;;;;4.22;1.55;;;14.90;57.40;;;;;;5005696;28;20034;-62
2023/05/31 05:43:30;;;;;;;4.93;1.88;;;14.90;57.20;;;;;;5006131;28;20470;-62
2023/05/31 05:45:55;;;;;;;2.85;1.60;;;15.10;57.10;;;;;;5005651;28;20037;-62
2023/05/31 05:48:21;;;;;;;3.58;1.63;;;15.20;57.60;;;;;;5005974;28;20040;-62
2023/05/31 05:50:47;;;;;;;3.75;1.73;;;15.20;56.90;;;;;;5004071;28;20046;-62
2023/05/31 05:53:12;;;;;;;2.65;1.38;;;15.30;56.80;;;;;;5006183;28;20501;-61
2023/05/31 05:55:38;;;;;;;2.63;1.65;;;15.30;56.60;;;;;;5005508;28;20044;-63
2023/05/31 05:58:04;;;;;;;4.07;1.80;;;15.40;56.60;;;;;;5006197;28;20195;-61
2023/05/31 06:00:29;;;;;;;3.30;1.67;;;15.50;56.50;;;;;;5004798;28;20109;-62
2023/05/31 06:02:55;;;;;;;3.83;1.40;;;15.60;56.30;;;;;;5002244;28;20042;-62
2023/05/31 06:05:25;;;;;;;2.97;1.65;;;15.60;56.30;;;;;;5003611;28;20509;-62
2023/05/31 06:07:54;;;;;;;3.80;1.73;;;15.70;56.30;;;;;;5004735;28;20048;-62
2023/05/31 06:10:20;;;;;;;2.45;1.40;;;15.80;56.10;;;;;;5004915;28;20390;-62
2023/05/31 06:12:46;;;;;;;4.82;1.60;;;15.90;56.00;;;;;;5004051;28;20490;-62
2023/05/31 06:15:11;;;;;;;4.47;1.83;;;15.90;55.90;;;;;;5005115;28;20036;-62
2023/05/31 06:17:37;;;;;;;3.05;1.60;;;16.00;55.70;;;;;;5004740;28;20432;-62
2023/05/31 06:20:05;;;;;;;3.53;1.70;;;16.10;55.80;;;;;;5003985;28;20030;-63
2023/05/31 06:22:30;;;;;;;4.32;1.65;;;16.20;55.90;;;;;;5003204;28;20169;-62
2023/05/31 06:24:57;;;;;;;3.97;1.67;;;16.30;55.90;;;;;;5003485;28;20108;-62
2023/05/31 06:27:23;;;;;;;5.43;2.35;;;16.30;55.60;;;;;;5004717;28;20081;-63
2023/05/31 06:29:55;;;;;;;3.63;1.60;;;16.40;55.50;;;;;;5002705;28;20056;-63
2023/05/31 06:32:21;;;;;;;7.63;1.70;;;16.50;55.50;;;;;;5004252;28;20420;-63
2023/05/31 06:34:46;;;;;;;3.35;1.63;;;16.60;55.40;;;;;;5004756;28;20320;-62
2023/05/31 06:37:12;;;;;;;3.10;1.85;;;16.60;56.00;;;;;;5003914;28;20103;-62
2023/05/31 06:39:38;;;;;;;4.78;1.73;;;16.70;55.40;;;;;;5003339;28;20030;-63
2023/05/31 06:42:04;;;;;;;8.50;2.08;;;16.80;55.40;;;;;;5004276;28;20049;-62
2023/05/31 06:44:29;;;;;;;3.65;1.70;;;16.90;55.80;;;;;;5003840;28;20521;-62
2023/05/31 06:46:55;;;;;;;2.92;2.00;;;17.00;55.00;;;;;;5003931;28;20081;-63
2023/05/31 06:49:21;;;;;;;3.10;1.80;;;17.00;54.90;;;;;;5002643;28;20125;-63
2023/05/31 06:51:47;;;;;;;3.15;1.67;;;17.10;55.00;;;;;;5004639;28;20176;-63
2023/05/31 06:54:12;;;;;;;5.63;2.13;;;17.20;55.00;;;;;;5004519;28;20049;-62
2023/05/31 06:56:38;;;;;;;5.70;2.28;;;17.30;54.70;;;;;;5003137;28;20141;-63
2023/05/31 06:59:03;;;;;;;4.63;1.85;;;17.40;54.60;;;;;;5007676;28;20060;-62
2023/05/31 07:01:29;;;;;;;3.88;1.98;;;17.50;54.50;;;;;;5007213;28;20042;-63
2023/05/31 07:03:55;;;;;;;4.82;1.80;;;17.60;54.30;;;;;;5007140;28;20128;-62
2023/05/31 07:06:21;;;;;;;2.45;2.00;;;17.60;54.30;;;;;;5007340;28;20596;-61
2023/05/31 07:08:46;;;;;;;4.50;2.08;;;17.70;54.30;;;;;;5006915;28;20038;-63
2023/05/31 07:11:12;;;;;;;3.97;1.70;;;17.80;54.60;;;;;;5007478;28;20038;-63
2023/05/31 07:13:38;;;;;;;7.18;2.00;;;17.90;54.30;;;;;;5007832;28;20041;-62
2023/05/31 07:16:03;;;;;;;5.28;2.45;;;18.00;53.80;;;;;;5007048;28;20065;-61
2023/05/31 07:18:29;;;;;;;4.50;1.88;;;18.00;53.70;;;;;;4987981;28;20213;-63
2023/05/31 07:20:56;;;;;;;3.65;1.90;;;18.10;53.80;;;;;;5006808;28;20041;-63
2023/05/31 07:23:24;;;;;;;2.80;1.98;;;18.20;53.90;;;;;;5006770;28;20053;-62
2023/05/31 07:25:49;;;;;;;3.65;2.05;;;18.30;53.30;;;;;;5007482;28;20052;-62
2023/05/31 07:28:15;;;;;;;3.85;2.20;;;18.40;53.30;;;;;;5007401;28;20030;-63
2023/05/31 07:30:40;;;;;;;5.47;2.05;;;18.50;53.30;;;;;;5005288;28;20379;-63
2023/05/31 07:33:06;;;;;;;3.92;2.00;;;18.50;53.20;;;;;;5006556;28;20092;-63
2023/05/31 07:35:32;;;;;;;3.78;2.05;;;18.60;53.30;;;;;;5006448;28;20037;-62
2023/05/31 07:37:57;;;;;;;3.58;1.90;;;18.70;53.40;;;;;;5006448;28;20037;-62
2023/05/31 07:40:23;;;;;;;3.17;1.90;;;18.80;53.20;;;;;;5006824;28;20096;-63
2023/05/31 07:42:48;;;;;;;2.95;2.05;;;18.90;53.10;;;;;;5005554;28;20432;-62
2023/05/31 07:45:14;;;;;;;2.95;1.77;;;19.00;53.00;;;;;;5006646;28;20047;-62
2023/05/31 07:47:40;;;;;;;5.60;2.05;;;19.10;53.10;;;;;;5005246;28;20034;-63
2023/05/31 07:50:06;;;;;;;4.13;1.90;;;19.10;52.90;;;;;;4988762;28;20298;-62
2023/05/31 07:52:32;;;;;;;4.35;1.90;;;19.20;52.90;;;;;;5006019;28;20121;-62
2023/05/31 07:54:57;;;;;;;4.32;2.10;;;19.40;52.70;;;;;;5006904;28;20117;-62
2023/05/31 07:57:23;;;;;;;3.28;2.05;;;19.50;52.50;;;;;;5006738;28;20050;-63
2023/05/31 07:59:53;;;;;;;5.13;2.00;;;19.50;52.30;;;;;;5006851;28;20037;-62
2023/05/31 08:02:18;;;;;;;3.40;1.92;;;19.60;52.30;;;;;;5001734;28;20575;-63
2023/05/31 08:04:44;;;;;;;3.03;2.03;;;19.70;52.20;;;;;;5007152;28;20033;-63
2023/05/31 08:07:10;;;;;;;6.88;2.20;;;19.80;52.00;;;;;;5007864;28;20552;-63
2023/05/31 08:09:35;;;;;;;3.03;1.80;;;19.90;52.00;;;;;;5006428;28;20053;-60
2023/05/31 08:12:02;;;;;;;6.32;2.03;;;20.00;52.00;;;;;;5007267;28;20038;-62
2023/05/31 08:14:28;;;;;;;2.88;2.20;;;20.10;51.80;;;;;;5007427;28;20361;-64
2023/05/31 08:16:54;;;;;;;4.30;2.05;;;20.20;51.50;;;;;;5008227;28;20034;-62
2023/05/31 08:19:21;;;;;;;3.13;2.03;;;20.30;51.50;;;;;;5004954;28;20382;-63
2023/05/31 08:21:46;;;;;;;3.20;1.83;;;20.40;51.00;;;;;;5005773;28;20030;-61
2023/05/31 08:24:12;;;;;;;4.32;2.05;;;20.50;51.40;;;;;;5007993;28;20460;-62
2023/05/31 08:26:38;;;;;;;3.80;1.90;;;20.60;51.00;;;;;;5007001;28;20045;-62
2023/05/31 08:29:03;;;;;;;4.60;1.80;;;20.70;50.80;;;;;;5006868;28;20087;-62
2023/05/31 08:31:29;;;;;;;4.75;1.85;;;20.80;50.70;;;;;;4996589;28;20046;-63
2023/05/31 08:33:56;;;;;;;3.72;2.00;;;20.90;51.00;;;;;;5007233;28;20040;-63
2023/05/31 08:36:23;;;;;;;5.75;2.10;;;21.10;50.80;;;;;;5006595;28;20133;-63
2023/05/31 08:38:48;;;;;;;5.00;2.88;;;21.20;50.50;;;;;;5006197;28;20097;-63
2023/05/31 08:41:14;;;;;;;3.58;2.10;;;21.30;50.30;;;;;;5006305;28;20045;-63
2023/05/31 08:43:40;;;;;;;2.95;1.90;;;21.40;49.80;;;;;;5006900;28;20038;-63
2023/05/31 08:46:07;;;;;;;3.47;2.33;;;21.60;49.50;;;;;;5007690;28;20573;-62
2023/05/31 08:48:39;;;;;;;4.60;2.00;;;21.70;49.50;;;;;;5005034;28;20034;-63
2023/05/31 08:51:06;;;;;;;5.32;1.92;;;21.80;49.00;;;;;;5006740;28;20125;-61
2023/05/31 08:53:34;;;;;;;6.40;1.83;;;21.90;48.90;;;;;;5006307;28;20088;-62
2023/05/31 08:56:01;;;;;;;3.35;1.85;;;22.00;48.50;;;;;;5007691;28;20065;-63
2023/05/31 08:58:28;;;;;;;4.97;2.15;;;22.10;48.30;;;;;;5006048;28;20048;-63
2023/05/31 09:00:54;;;;;;;3.70;1.92;;;22.20;48.00;;;;;;5006626;28;20081;-62
2023/05/31 09:03:22;;;;;;;4.75;1.95;;;22.30;48.00;;;;;;5005866;28;20133;-63
2023/05/31 09:05:48;;;;;;;3.65;1.85;;;22.40;47.90;;;;;;5005230;28;20081;-62
2023/05/31 09:08:13;;;;;;;7.30;2.00;;;22.50;47.90;;;;;;5005635;28;20672;-63
2023/05/31 09:10:40;;;;;;;5.22;1.65;;;22.60;47.60;;;;;;5005169;28;20037;-63
2023/05/31 09:13:06;;;;;;;2.15;1.80;;;22.70;47.40;;;;;;4988628;28;20502;-63
2023/05/31 09:15:34;;;;;;;5.47;2.20;;;22.70;47.20;;;;;;5005071;28;20152;-63
2023/05/31 09:18:15;;;;;;;2.95;1.77;;;22.80;47.00;;;;;;5005669;28;20501;-63
2023/05/31 09:20:42;;;;;;;4.47;1.80;;;22.90;46.00;;;;;;5003924;28;20132;-61
2023/05/31 09:23:09;;;;;;;3.60;2.00;;;23.00;46.40;;;;;;5005733;28;20038;-63
2023/05/31 09:25:49;;;;;;;6.43;1.70;;;23.10;46.20;;;;;;5006496;28;20056;-63
2023/05/31 09:28:16;;;;;;;5.70;1.92;;;23.20;46.00;;;;;;5005844;28;20092;-63
2023/05/31 09:30:42;;;;;;;3.50;1.77;;;23.20;45.80;;;;;;5004788;28;20030;-63
2023/05/31 09:33:08;;;;;;;4.10;1.85;;;23.30;45.70;;;;;;5005783;28;20041;-63
2023/05/31 09:35:34;;;;;;;47.33;3.80;;;23.40;45.70;;;;;;5004728;28;20750;-63
2023/05/31 09:38:07;;;;;;;4.15;1.80;;;23.40;45.50;;;;;;5004723;28;20057;-63
2023/05/31 09:40:33;;;;;;;3.05;1.92;;;23.60;44.60;;;;;;5003594;28;20386;-61
2023/05/31 09:43:00;;;;;;;5.00;1.73;;;23.60;44.80;;;;;;5006698;28;20466;-63
2023/05/31 09:45:28;;;;;;;3.47;2.10;;;23.70;44.80;;;;;;5006478;28;20041;-63
2023/05/31 09:47:54;;;;;;;4.35;1.70;;;23.80;44.80;;;;;;5005428;28;20093;-63
2023/05/31 09:50:21;;;;;;;5.93;1.70;;;23.80;44.50;;;;;;5005101;28;20161;-62
2023/05/31 09:52:49;;;;;;;4.05;1.83;;;23.80;44.00;;;;;;5006127;28;20397;-63
2023/05/31 09:55:16;;;;;;;3.35;1.77;;;23.90;44.90;;;;;;5004859;28;20625;-63
2023/05/31 09:57:43;;;;;;;3.72;2.13;;;24.00;44.30;;;;;;5005820;28;20379;-63
2023/05/31 10:00:20;;;;;;;4.22;1.80;;;24.10;43.80;;;;;;5004553;28;20566;-63
2023/05/31 10:02:47;;;;;;;5.32;1.67;;;24.10;43.50;;;;;;5004613;28;20386;-62
2023/05/31 10:05:14;;;;;;;5.65;2.20;;;24.10;43.70;;;;;;5003451;28;20497;-63
2023/05/31 10:07:41;;;;;;;2.75;1.55;;;24.20;43.50;;;;;;5006178;28;20060;-61
2023/05/31 10:10:08;;;;;;;3.22;1.60;;;24.20;42.70;;;;;;5004835;28;20456;-63
2023/05/31 10:12:51;;;;;;;2.75;1.63;;;24.30;42.80;;;;;;5004687;28;20091;-62
2023/05/31 10:15:21;;;;;;;5.38;1.90;;;24.30;42.90;;;;;;5005475;28;20042;-62
2023/05/31 10:18:09;;;;;;;3.58;1.85;;;24.40;42.90;;;;;;5004550;28;20397;-63
2023/05/31 10:20:41;;;;;;;3.00;1.63;;;24.40;42.50;;;;;;5002112;28;20038;-62
2023/05/31 10:23:13;;;;;;;6.82;1.75;;;24.50;42.70;;;;;;5006527;28;20122;-63
2023/05/31 10:25:50;;;;;;;2.85;1.67;;;24.50;42.90;;;;;;5004857;28;20042;-63
2023/05/31 10:28:20;;;;;;;3.65;1.90;;;24.60;42.10;;;;;;5004976;28;20033;-63
2023/05/31 10:30:49;;;;;;;3.35;1.90;;;24.60;42.30;;;;;;5003442;28;20120;-63
2023/05/31 10:33:17;;;;;;;4.00;1.60;;;24.70;42.10;;;;;;5007339;28;20061;-63
2023/05/31 10:35:45;;;;;;;2.50;1.77;;;24.70;42.10;;;;;;5010240;28;20140;-63
2023/05/31 10:38:11;;;;;;;2.90;1.80;;;24.70;41.60;;;;;;5010241;28;20448;-63
2023/05/31 10:40:49;;;;;;;5.47;1.90;;;24.80;41.60;;;;;;5009198;28;20169;-62
2023/05/31 10:43:40;;;;;;;4.53;1.80;;;24.80;40.70;;;;;;4991260;28;20049;-63
2023/05/31 10:46:36;;;;;;;2.35;1.58;;;24.80;41.20;;;;;;4986449;28;20060;-63
2023/05/31 10:49:03;;;;;;;2.03;1.45;;;24.90;41.50;;;;;;4997293;28;20128;-62
2023/05/31 10:51:42;;;;;;;6.03;1.80;;;25.00;41.80;;;;;;5008549;28;20420;-63
2023/05/31 10:54:08;;;;;;;3.28;1.70;;;25.00;41.60;;;;;;5007774;28;20066;-63
2023/05/31 10:56:38;;;;;;;4.13;1.58;;;25.00;41.30;;;;;;5008205;28;20068;-62
2023/05/31 10:59:04;;;;;;;3.22;1.90;;;25.10;41.20;;;;;;5009539;28;20045;-63
2023/05/31 11:01:29;;;;;;;3.17;1.92;;;25.10;41.10;;;;;;5010092;28;20057;-63
2023/05/31 11:03:57;;;;;;;4.85;1.88;;;25.20;40.80;;;;;;5010593;28;20128;-63
2023/05/31 11:06:27;;;;;;;3.58;1.88;;;25.20;39.90;;;;;;5008919;28;20049;-63
2023/05/31 11:09:00;;;;;;;3.60;1.77;;;25.20;39.70;;;;;;5009431;28;20045;-63
2023/05/31 11:11:32;;;;;;;5.07;1.75;;;25.20;39.70;;;;;;5010001;28;20034;-63
2023/05/31 11:14:10;;;;;;;4.93;1.75;;;25.20;40.20;;;;;;5010500;28;20022;-63
2023/05/31 11:16:47;;;;;;;2.17;1.40;;;25.20;39.90;;;;;;5009500;28;20056;-62
2023/05/31 11:19:14;;;;;;;3.65;1.52;;;25.30;40.60;;;;;;5007397;28;20038;-63
2023/05/31 11:21:49;;;;;;;3.03;1.63;;;25.30;40.50;;;;;;5006758;28;20034;-63
2023/05/31 11:24:27;;;;;;;3.22;1.52;;;25.30;40.60;;;;;;5009400;28;20441;-63
2023/05/31 11:26:54;;;;;;;2.25;1.50;;;25.30;39.00;;;;;;5009522;28;20123;-63
2023/05/31 11:29:20;;;;;;;3.08;1.70;;;25.30;39.50;;;;;;5008170;28;20049;-63
2023/05/31 11:31:54;;;;;;;2.88;1.77;;;25.30;39.20;;;;;;5009655;28;20038;-63
2023/05/31 11:34:28;;;;;;;2.63;1.85;;;25.30;38.80;;;;;;5008569;28;20042;-63
2023/05/31 11:36:57;;;;;;;3.70;1.63;;;25.30;38.80;;;;;;5008789;28;20042;-63
2023/05/31 11:39:24;;;;;;;1.50;1.40;;;25.30;39.20;;;;;;5008300;28;20064;-63
2023/05/31 11:41:49;;;;;;;3.72;1.70;;;25.30;39.10;;;;;;5009805;28;20517;-62
2023/05/31 11:44:23;;;;;;;2.42;1.92;;;25.30;39.30;;;;;;5009305;28;20049;-63
2023/05/31 11:47:14;;;;;;;3.13;1.55;;;25.30;38.50;;;;;;5009550;28;20037;-63
2023/05/31 11:49:39;;;;;;;2.70;1.70;;;25.30;38.50;;;;;;4997736;28;20072;-63
2023/05/31 11:52:06;;;;;;;2.25;1.50;;;25.40;39.00;;;;;;5009685;28;20037;-62
2023/05/31 11:54:32;;;;;;;3.40;1.60;;;25.40;39.30;;;;;;5008330;28;20450;-62
2023/05/31 11:57:08;;;;;;;3.85;1.55;;;25.40;39.30;;;;;;4997659;28;20061;-63
2023/05/31 11:59:36;;;;;;;3.00;1.63;;;25.50;38.20;;;;;;4982673;28;20045;-63
2023/05/31 12:02:04;;;;;;;6.72;1.73;;;25.50;38.40;;;;;;5006610;28;20044;-63
2023/05/31 12:04:29;;;;;;;4.25;1.50;;;25.50;38.20;;;;;;5005707;28;20053;-62
2023/05/31 12:06:55;;;;;;;2.28;1.60;;;25.50;38.20;;;;;;5008369;28;20133;-63
2023/05/31 12:09:24;;;;;;;3.13;1.63;;;25.50;38.00;;;;;;5007988;28;20453;-62
2023/05/31 12:11:50;;;;;;;3.13;1.77;;;25.60;37.90;;;;;;5008131;28;20448;-63
2023/05/31 12:14:16;;;;;;;2.58;1.67;;;25.60;37.80;;;;;;5006891;28;20041;-63
2023/05/31 12:16:41;;;;;;;2.05;1.60;;;25.60;37.30;;;;;;5007321;28;20117;-61
2023/05/31 12:19:13;;;;;;;3.20;1.35;;;25.60;37.90;;;;;;5007079;28;20520;-63
2023/05/31 12:21:39;;;;;;;6.45;1.83;;;25.60;37.40;;;;;;5007177;28;20034;-62
2023/05/31 12:24:11;;;;;;;3.38;1.60;;;25.60;37.70;;;;;;5006115;28;20425;-62
2023/05/31 12:26:37;;;;;;;5.00;1.45;;;25.60;37.40;;;;;;5006716;28;20553;-63
2023/05/31 12:29:03;;;;;;;3.30;1.48;;;25.70;37.40;;;;;;5008367;28;20144;-62
2023/05/31 12:31:32;;;;;;;5.05;1.52;;;25.70;37.00;;;;;;5006095;28;20063;-63
2023/05/31 12:33:59;;;;;;;3.80;1.67;;;25.70;36.70;;;;;;5005977;28;20140;-64
2023/05/31 12:36:26;;;;;;;3.78;1.50;;;25.70;36.90;;;;;;5006323;28;20060;-63
2023/05/31 12:38:57;;;;;;;2.40;1.60;;;25.80;36.90;;;;;;5006107;28;20045;-62
2023/05/31 12:41:23;;;;;;;3.08;1.60;;;25.70;36.60;;;;;;5005786;28;20061;-62
2023/05/31 12:43:49;;;;;;;4.35;1.58;;;25.80;36.30;;;;;;5006494;28;20490;-63
2023/05/31 12:46:18;;;;;;;2.28;1.30;;;25.70;36.40;;;;;;5006326;28;20034;-63
2023/05/31 12:48:50;;;;;;;5.25;1.80;;;25.70;36.20;;;;;;5005996;28;20030;-63